Time;durP1;ratioP1;P1;durP2;ratioP2;P2;SDS_P1;SDS_P2;PMS_P1;PMS_P2;Temp;Humidity;BMP_temperature;BMP_pressure;BME280_temperature;BME280_humidity;BME280_pressure;Samples;Min_cycle;Max_cycle;Signal;HPM_P1;HPM_P2
2022/06/04 00:00:47;;;;;;;8.37;5.43;;;15.10;77.30;;;;;;5068974;28;46455;-63
2022/06/04 00:03:12;;;;;;;8.30;4.60;;;15.10;77.40;;;;;;5070816;28;45778;-63
2022/06/04 00:05:41;;;;;;;5.40;4.20;;;15.00;77.20;;;;;;5071160;28;46396;-62
2022/06/04 00:08:08;;;;;;;10.63;4.10;;;15.00;77.30;;;;;;5069233;28;46343;-63
2022/06/04 00:16:10;;;;;;;8.40;5.20;;;14.80;77.30;;;;;;5069972;28;46406;-63
2022/06/04 00:18:38;;;;;;;5.77;4.07;;;14.80;77.30;;;;;;5068100;28;46428;-63
2022/06/04 00:21:04;;;;;;;14.83;6.80;;;14.80;77.40;;;;;;5068055;28;46389;-64
2022/06/04 00:23:30;;;;;;;9.80;6.90;;;14.80;77.00;;;;;;5068240;28;46397;-62
2022/06/04 00:25:58;;;;;;;9.37;7.50;;;14.80;77.10;;;;;;5069847;27;46486;-62
2022/06/04 00:28:25;;;;;;;9.40;6.00;;;14.80;77.00;;;;;;5066525;28;46361;-63
2022/06/04 00:30:53;;;;;;;9.03;6.20;;;14.80;77.10;;;;;;5066707;28;48068;-62
2022/06/04 00:33:18;;;;;;;17.70;7.60;;;14.80;77.20;;;;;;5067892;28;46365;-63
2022/06/04 00:35:47;;;;;;;14.20;7.57;;;14.80;77.20;;;;;;5069252;28;45798;-64
2022/06/04 00:38:15;;;;;;;11.90;6.87;;;14.80;77.20;;;;;;5067902;28;46726;-63
2022/06/04 00:40:54;;;;;;;9.53;5.60;;;14.80;77.30;;;;;;5066513;28;48011;-62
2022/06/04 00:43:21;;;;;;;7.97;4.60;;;14.70;77.30;;;;;;5067517;28;46472;-62
2022/06/04 00:46:24;;;;;;;11.70;4.60;;;14.70;77.30;;;;;;5067766;28;46409;-62
2022/06/04 00:48:49;;;;;;;6.10;4.20;;;14.60;77.30;;;;;;5067092;28;46480;-63
2022/06/04 00:51:15;;;;;;;6.07;3.50;;;14.50;77.40;;;;;;5068370;27;46705;-63
2022/06/04 00:53:41;;;;;;;4.30;3.07;;;14.40;77.50;;;;;;5069579;28;46382;-62
2022/06/04 00:56:18;;;;;;;5.37;3.10;;;14.30;77.50;;;;;;5064478;28;46431;-63
2022/06/04 00:59:15;;;;;;;5.63;3.00;;;14.30;78.10;;;;;;5065678;28;46448;-63
2022/06/04 01:01:55;;;;;;;4.47;3.30;;;14.20;77.50;;;;;;5066514;28;46890;-63
2022/06/04 01:04:49;;;;;;;7.20;4.03;;;14.20;77.30;;;;;;5068713;28;46495;-63
2022/06/04 01:07:32;;;;;;;19.53;4.30;;;14.10;77.30;;;;;;5067962;28;46440;-63
2022/06/04 01:10:10;;;;;;;6.20;3.97;;;14.10;77.40;;;;;;5068394;27;46340;-63
2022/06/04 01:12:54;;;;;;;5.77;3.83;;;14.00;77.50;;;;;;5068277;28;47178;-63
2022/06/04 01:15:42;;;;;;;5.30;3.97;;;14.00;77.60;;;;;;5067891;28;46423;-62
2022/06/04 01:18:23;;;;;;;6.10;4.20;;;14.00;77.50;;;;;;5067787;28;46452;-62
2022/06/04 01:21:03;;;;;;;7.43;5.40;;;14.00;77.20;;;;;;5064713;28;46464;-62
2022/06/04 01:24:13;;;;;;;12.73;6.77;;;14.10;77.10;;;;;;5067915;28;47009;-62
2022/06/04 01:27:07;;;;;;;14.63;6.80;;;14.00;77.10;;;;;;5065460;28;46482;-62
2022/06/04 01:29:48;;;;;;;12.90;6.67;;;14.10;77.00;;;;;;5065156;28;46786;-63
2022/06/04 01:32:20;;;;;;;9.40;5.40;;;14.20;76.90;;;;;;5066755;28;46406;-63
2022/06/04 01:35:23;;;;;;;10.13;5.60;;;14.20;76.70;;;;;;5066906;28;47038;-64
2022/06/04 01:38:07;;;;;;;10.13;4.97;;;14.20;76.90;;;;;;5055304;28;46471;-63
2022/06/04 01:43:47;;;;;;;6.87;5.10;;;14.20;76.60;;;;;;5068786;28;46409;-63
2022/06/04 01:46:22;;;;;;;9.57;5.27;;;14.20;77.70;;;;;;5066451;28;48281;-62
2022/06/04 01:48:52;;;;;;;8.40;5.50;;;14.20;76.50;;;;;;5068197;28;46440;-62
2022/06/04 01:51:25;;;;;;;7.93;6.00;;;14.20;76.60;;;;;;5070538;28;46469;-62
2022/06/04 01:53:59;;;;;;;9.23;5.50;;;14.20;76.40;;;;;;5071966;28;46534;-62
2022/06/04 01:56:36;;;;;;;7.03;4.40;;;14.20;76.40;;;;;;5072307;28;47195;-61
2022/06/04 01:59:10;;;;;;;8.50;6.13;;;14.20;76.40;;;;;;5070040;28;46645;-62
2022/06/04 02:01:38;;;;;;;9.97;6.70;;;14.20;76.40;;;;;;5071907;28;46403;-62
2022/06/04 02:04:12;;;;;;;8.00;6.10;;;14.20;76.40;;;;;;5072372;28;46572;-62
2022/06/04 02:06:43;;;;;;;9.20;6.17;;;14.30;76.50;;;;;;5071122;28;47045;-62
2022/06/04 02:09:14;;;;;;;5.50;4.43;;;14.30;76.50;;;;;;5070082;28;46439;-62
2022/06/04 02:11:47;;;;;;;7.17;4.70;;;14.30;76.60;;;;;;5070312;28;45729;-62
2022/06/04 02:14:13;;;;;;;8.27;4.00;;;14.20;78.00;;;;;;5071119;28;46383;-62
2022/06/04 02:16:54;;;;;;;9.40;4.10;;;14.10;76.90;;;;;;5072437;28;46489;-62
2022/06/04 02:19:20;;;;;;;6.30;3.33;;;14.00;77.10;;;;;;5072577;27;46439;-62
2022/06/04 02:21:46;;;;;;;6.00;3.20;;;13.90;77.10;;;;;;5079212;27;45791;-62
2022/06/04 02:24:12;;;;;;;5.40;3.13;;;13.80;77.10;;;;;;5069917;28;46138;-62
2022/06/04 02:26:41;;;;;;;3.60;2.60;;;13.80;77.20;;;;;;5071819;27;47079;-62
2022/06/04 02:29:07;;;;;;;4.93;3.07;;;13.80;77.10;;;;;;5070792;27;45821;-62
2022/06/04 02:31:54;;;;;;;5.13;3.20;;;13.70;77.00;;;;;;5069099;28;46302;-62
2022/06/04 02:35:07;;;;;;;2.97;1.90;;;13.70;77.00;;;;;;5071436;28;46377;-62
2022/06/04 02:37:45;;;;;;;4.27;2.20;;;13.70;77.00;;;;;;5071668;28;47206;-62
2022/06/04 02:40:26;;;;;;;3.37;2.20;;;13.60;77.00;;;;;;5071091;28;46225;-62
2022/06/04 02:42:55;;;;;;;3.93;2.70;;;13.60;76.80;;;;;;5070583;28;46281;-61
2022/06/04 02:45:30;;;;;;;6.20;2.40;;;13.50;76.70;;;;;;5069035;28;46589;-62
2022/06/04 02:47:58;;;;;;;5.30;2.73;;;13.50;76.60;;;;;;5071108;28;46589;-61
2022/06/04 02:50:29;;;;;;;5.13;3.20;;;13.50;76.70;;;;;;5066858;28;46383;-62
2022/06/04 02:52:56;;;;;;;7.20;3.60;;;13.50;76.70;;;;;;5071896;28;46442;-62
2022/06/04 02:55:30;;;;;;;6.47;3.63;;;13.50;76.70;;;;;;5069476;27;46715;-62
2022/06/04 02:57:59;;;;;;;4.37;3.13;;;13.40;76.60;;;;;;5069302;28;46451;-62
2022/06/04 03:00:27;;;;;;;14.63;3.40;;;13.40;76.80;;;;;;5067998;27;46399;-61
2022/06/04 03:02:53;;;;;;;4.87;2.77;;;13.40;77.00;;;;;;5069740;27;46365;-62
2022/06/04 03:05:21;;;;;;;10.73;2.70;;;13.40;77.00;;;;;;5069733;27;46395;-62
2022/06/04 03:07:50;;;;;;;4.20;2.50;;;13.30;77.10;;;;;;5069675;28;47082;-62
2022/06/04 03:10:27;;;;;;;4.57;3.00;;;13.30;77.00;;;;;;5064273;28;46404;-62
2022/06/04 03:12:53;;;;;;;4.67;3.10;;;13.40;76.70;;;;;;5069201;28;46448;-63
2022/06/04 03:15:20;;;;;;;6.17;3.40;;;13.40;76.60;;;;;;5069629;28;46467;-62
2022/06/04 03:17:47;;;;;;;6.43;3.97;;;13.40;76.40;;;;;;5068825;28;47843;-62
2022/06/04 03:20:16;;;;;;;7.60;3.87;;;13.50;76.40;;;;;;5068784;28;46441;-62
2022/06/04 03:22:42;;;;;;;6.30;3.90;;;13.50;76.40;;;;;;5070076;28;45826;-62
2022/06/04 03:25:08;;;;;;;11.60;3.80;;;13.50;76.40;;;;;;5071199;28;46417;-61
2022/06/04 03:27:34;;;;;;;4.53;3.40;;;13.50;77.50;;;;;;5069000;28;46980;-62
2022/06/04 03:30:00;;;;;;;4.80;3.30;;;13.50;76.30;;;;;;5069268;28;46401;-62
2022/06/04 03:32:25;;;;;;;4.27;3.33;;;13.60;77.40;;;;;;5071341;28;46468;-61
2022/06/04 03:34:51;;;;;;;4.67;3.53;;;13.70;76.20;;;;;;5069255;27;46358;-61
2022/06/04 03:37:17;;;;;;;6.77;2.80;;;13.70;76.00;;;;;;5069023;28;48165;-61
2022/06/04 03:39:42;;;;;;;6.23;2.93;;;13.70;76.10;;;;;;5069316;27;46483;-61
2022/06/04 03:42:08;;;;;;;4.87;3.60;;;13.80;76.20;;;;;;5070927;27;46512;-61
2022/06/04 03:44:34;;;;;;;5.70;2.90;;;13.80;75.90;;;;;;5070615;28;46567;-61
2022/06/04 03:47:00;;;;;;;4.87;2.40;;;13.90;77.00;;;;;;5069560;27;46264;-63
2022/06/04 03:49:26;;;;;;;3.43;2.47;;;13.90;75.80;;;;;;5070934;28;46329;-62
2022/06/04 03:51:51;;;;;;;4.00;2.70;;;13.90;75.80;;;;;;5068229;28;46369;-62
2022/06/04 03:54:17;;;;;;;6.30;2.43;;;13.90;75.80;;;;;;5069061;27;46643;-62
2022/06/04 03:57:37;;;;;;;3.20;2.43;;;13.90;75.90;;;;;;5070266;28;46400;-62
2022/06/04 03:59:28;;;;;;;4.93;2.37;;;13.90;75.90;;;;;;5066692;28;46380;-62
2022/06/04 04:01:54;;;;;;;8.70;2.50;;;13.90;75.80;;;;;;5067595;28;46302;-62
2022/06/04 04:04:19;;;;;;;4.50;2.50;;;14.00;75.50;;;;;;5068610;28;46460;-63
2022/06/04 04:06:45;;;;;;;5.83;2.30;;;14.10;75.20;;;;;;5070126;28;46376;-62
2022/06/04 04:09:11;;;;;;;4.80;2.53;;;14.20;74.80;;;;;;5067948;28;46395;-62
2022/06/04 04:11:36;;;;;;;4.30;3.03;;;14.30;74.70;;;;;;5069452;27;45881;-62
2022/06/04 04:14:02;;;;;;;4.50;2.80;;;14.30;74.70;;;;;;5067639;27;46489;-62
2022/06/04 04:16:27;;;;;;;4.20;2.53;;;14.50;74.30;;;;;;5067398;27;47168;-63
2022/06/04 04:18:53;;;;;;;3.80;2.77;;;14.70;73.80;;;;;;5068728;27;46466;-62
2022/06/04 04:21:21;;;;;;;3.93;2.80;;;14.80;74.40;;;;;;5067449;27;46547;-63
2022/06/04 04:23:46;;;;;;;5.17;2.90;;;15.00;73.00;;;;;;5068265;28;46403;-62
2022/06/04 04:26:14;;;;;;;4.07;2.90;;;15.20;72.90;;;;;;5067274;28;47149;-62
2022/06/04 04:28:40;;;;;;;4.03;3.33;;;15.30;72.60;;;;;;5067918;28;46704;-62
2022/06/04 04:31:14;;;;;;;5.90;2.90;;;15.40;72.40;;;;;;5069574;27;45874;-62
2022/06/04 04:33:39;;;;;;;5.00;3.10;;;15.60;71.90;;;;;;5067104;28;46460;-63
2022/06/04 04:36:06;;;;;;;4.80;3.33;;;15.80;71.70;;;;;;5070252;27;46460;-62
2022/06/04 04:38:32;;;;;;;5.83;3.00;;;16.00;71.50;;;;;;5067740;28;46409;-62
2022/06/04 04:40:57;;;;;;;4.73;2.80;;;16.10;71.00;;;;;;5067888;28;46452;-63
2022/06/04 04:43:23;;;;;;;4.90;2.73;;;16.60;70.50;;;;;;5068254;28;46826;-62
2022/06/04 04:45:50;;;;;;;4.23;2.70;;;18.00;68.90;;;;;;5068249;28;47116;-62
2022/06/04 04:48:16;;;;;;;7.67;4.27;;;19.60;66.40;;;;;;5068309;28;46377;-63
2022/06/04 04:50:47;;;;;;;4.50;3.10;;;21.00;62.70;;;;;;5068312;28;46369;-63
2022/06/04 04:53:13;;;;;;;3.70;2.17;;;22.20;59.60;;;;;;5068979;28;46638;-63
2022/06/04 04:55:39;;;;;;;9.30;2.50;;;23.10;57.20;;;;;;5068590;27;47827;-63
2022/06/04 04:58:05;;;;;;;6.30;2.37;;;23.30;56.00;;;;;;5070004;27;46244;-62
2022/06/04 05:00:32;;;;;;;5.07;2.43;;;23.90;54.70;;;;;;5076218;28;46369;-62
2022/06/04 05:02:59;;;;;;;3.10;1.93;;;25.00;53.40;;;;;;5068582;28;46377;-63
2022/06/04 05:05:25;;;;;;;4.60;2.30;;;26.00;48.80;;;;;;5068845;28;47204;-64
2022/06/04 05:07:50;;;;;;;6.57;2.37;;;26.70;46.60;;;;;;5067547;28;46346;-63
2022/06/04 05:10:16;;;;;;;7.40;2.40;;;26.80;45.10;;;;;;5067705;28;46616;-64
2022/06/04 05:12:42;;;;;;;4.40;2.33;;;25.70;46.70;;;;;;5067652;28;46696;-63
2022/06/04 05:15:08;;;;;;;6.00;3.10;;;24.40;48.60;;;;;;5069055;28;46500;-62
2022/06/04 05:17:34;;;;;;;3.67;2.50;;;23.40;50.80;;;;;;5066937;28;46510;-63
2022/06/04 05:19:59;;;;;;;4.63;2.80;;;22.70;51.60;;;;;;5067485;28;46322;-62
2022/06/04 05:22:25;;;;;;;5.20;2.93;;;22.20;52.60;;;;;;5070617;28;46407;-62
2022/06/04 05:24:50;;;;;;;6.50;3.40;;;22.40;52.10;;;;;;5070079;27;47158;-62
2022/06/04 05:27:16;;;;;;;7.50;4.93;;;22.30;52.20;;;;;;5073021;28;46569;-62
2022/06/04 05:29:41;;;;;;;6.93;4.10;;;22.00;53.00;;;;;;5071449;28;46321;-63
2022/06/04 05:32:09;;;;;;;7.40;2.60;;;22.10;53.70;;;;;;5071630;27;46290;-64
2022/06/04 05:34:35;;;;;;;12.60;3.43;;;23.70;51.10;;;;;;5070901;28;46486;-62
2022/06/04 05:37:02;;;;;;;4.50;2.90;;;25.30;48.20;;;;;;5070322;27;46447;-63
2022/06/04 05:39:31;;;;;;;4.20;2.87;;;26.60;45.00;;;;;;5069961;28;46487;-62
2022/06/04 05:41:58;;;;;;;5.23;2.80;;;27.90;41.40;;;;;;5072265;28;45929;-60
2022/06/04 05:44:24;;;;;;;6.93;2.43;;;29.20;38.80;;;;;;5070242;27;46453;-61
2022/06/04 05:46:50;;;;;;;4.63;2.10;;;30.00;36.30;;;;;;5071659;27;45900;-61
2022/06/04 05:49:15;;;;;;;5.93;2.10;;;30.00;35.40;;;;;;5066379;28;46910;-61
2022/06/04 05:51:43;;;;;;;5.67;2.53;;;29.00;36.60;;;;;;5070914;27;46411;-62
2022/06/04 05:54:10;;;;;;;4.70;2.57;;;27.40;40.30;;;;;;5072050;28;46505;-62
2022/06/04 05:56:38;;;;;;;6.83;2.63;;;26.30;42.20;;;;;;5070998;28;46388;-61
2022/06/04 05:59:07;;;;;;;6.40;2.50;;;25.40;43.90;;;;;;5072394;28;46499;-62
2022/06/04 06:01:34;;;;;;;5.77;2.90;;;24.60;45.40;;;;;;5071049;28;46654;-62
2022/06/04 06:04:01;;;;;;;6.63;2.93;;;23.90;46.70;;;;;;5071508;28;47348;-62
2022/06/04 06:06:32;;;;;;;5.50;2.90;;;23.30;47.80;;;;;;5070742;28;46385;-62
2022/06/04 06:09:00;;;;;;;4.80;2.67;;;22.80;48.70;;;;;;5068298;28;46484;-62
2022/06/04 06:11:26;;;;;;;4.53;2.80;;;22.30;49.80;;;;;;5070291;27;46445;-62
2022/06/04 06:13:52;;;;;;;8.10;2.50;;;21.90;50.00;;;;;;5069347;28;46434;-62
2022/06/04 06:16:25;;;;;;;5.50;3.10;;;21.70;50.90;;;;;;5071347;28;46405;-62
2022/06/04 06:18:51;;;;;;;6.23;3.10;;;21.40;51.50;;;;;;5070224;28;46508;-63
2022/06/04 06:21:22;;;;;;;4.43;2.60;;;21.30;52.00;;;;;;5070204;28;46468;-63
2022/06/04 06:23:48;;;;;;;9.50;2.93;;;21.20;52.40;;;;;;5070171;28;46443;-64
2022/06/04 06:26:19;;;;;;;7.53;3.30;;;21.10;52.90;;;;;;5068464;28;46622;-61
2022/06/04 06:28:46;;;;;;;7.40;3.17;;;21.00;53.70;;;;;;5067805;27;46398;-63
2022/06/04 06:31:14;;;;;;;6.40;3.40;;;20.90;54.10;;;;;;5070543;28;46387;-62
2022/06/04 06:33:40;;;;;;;5.17;3.00;;;20.80;54.60;;;;;;5070755;28;46448;-62
2022/06/04 06:36:08;;;;;;;7.87;3.43;;;20.70;54.90;;;;;;5071766;27;46430;-63
2022/06/04 06:38:35;;;;;;;7.30;3.77;;;20.50;55.50;;;;;;5070222;28;46357;-63
2022/06/04 06:41:02;;;;;;;5.50;3.70;;;20.40;55.90;;;;;;5072687;28;46649;-63
2022/06/04 06:43:39;;;;;;;6.97;3.80;;;20.40;55.90;;;;;;5070399;28;48288;-62
2022/06/04 06:46:10;;;;;;;7.37;3.83;;;20.50;56.10;;;;;;5071796;27;46479;-63
2022/06/04 06:48:38;;;;;;;9.00;4.20;;;20.50;56.40;;;;;;5070824;28;46433;-63
2022/06/04 06:51:45;;;;;;;8.00;3.60;;;20.40;57.30;;;;;;5070374;28;46487;-63
2022/06/04 06:54:11;;;;;;;5.50;3.30;;;19.90;60.10;;;;;;5071203;28;47081;-63
2022/06/04 06:56:41;;;;;;;6.83;3.10;;;19.80;60.60;;;;;;5068061;28;46490;-63
2022/06/04 06:59:07;;;;;;;13.00;5.03;;;19.60;61.00;;;;;;5064888;28;46519;-62
2022/06/04 07:01:33;;;;;;;7.80;3.17;;;19.40;62.20;;;;;;5070313;28;46495;-62
2022/06/04 07:04:01;;;;;;;5.43;2.60;;;19.20;62.70;;;;;;5070919;27;46411;-63
2022/06/04 07:06:36;;;;;;;5.60;2.90;;;19.10;63.60;;;;;;5069103;28;46411;-62
2022/06/04 07:09:05;;;;;;;7.47;3.40;;;18.90;64.50;;;;;;5069018;28;45890;-63
2022/06/04 07:11:31;;;;;;;5.47;3.20;;;18.90;64.20;;;;;;5071919;28;46091;-63
2022/06/04 07:13:57;;;;;;;5.07;2.60;;;19.10;63.30;;;;;;5069674;28;46318;-63
2022/06/04 07:16:23;;;;;;;6.40;3.20;;;19.20;62.70;;;;;;5067809;28;46433;-62
2022/06/04 07:18:49;;;;;;;11.43;2.80;;;19.40;62.20;;;;;;5070290;28;46441;-62
2022/06/04 07:21:15;;;;;;;5.97;2.67;;;19.50;61.80;;;;;;5068478;28;46727;-62
2022/06/04 07:23:41;;;;;;;6.17;2.57;;;19.70;61.30;;;;;;5069040;28;46377;-63
2022/06/04 07:26:06;;;;;;;9.30;2.77;;;19.90;60.70;;;;;;5070542;28;46367;-62
2022/06/04 07:28:33;;;;;;;5.43;2.57;;;20.10;62.20;;;;;;5067345;28;46475;-63
2022/06/04 07:30:59;;;;;;;5.10;2.90;;;20.30;60.40;;;;;;5068494;27;46433;-62
2022/06/04 07:33:28;;;;;;;4.43;2.20;;;20.50;60.00;;;;;;5070085;28;47058;-62
2022/06/04 07:35:54;;;;;;;5.20;2.40;;;20.70;59.50;;;;;;5067836;28;46362;-63
2022/06/04 07:38:20;;;;;;;3.87;2.10;;;20.80;59.20;;;;;;5069578;28;46517;-63
2022/06/04 07:40:45;;;;;;;6.80;2.83;;;20.90;59.40;;;;;;5072869;28;46582;-64
2022/06/04 07:43:12;;;;;;;5.10;2.80;;;21.10;59.30;;;;;;5069650;28;46930;-63
2022/06/04 07:45:38;;;;;;;9.87;3.60;;;21.80;58.80;;;;;;5068497;28;46716;-63
2022/06/04 07:48:05;;;;;;;8.80;2.70;;;22.60;57.60;;;;;;5064894;28;46440;-62
2022/06/04 07:50:31;;;;;;;5.17;2.40;;;23.10;55.90;;;;;;5064731;28;46579;-62
2022/06/04 07:52:58;;;;;;;4.90;2.30;;;23.40;54.50;;;;;;5067213;28;46451;-63
2022/06/04 07:55:24;;;;;;;5.13;2.30;;;23.50;53.80;;;;;;5067559;28;46500;-63
2022/06/04 07:57:50;;;;;;;11.70;3.00;;;23.40;55.30;;;;;;5069328;28;46406;-63
2022/06/04 08:00:16;;;;;;;9.17;2.90;;;23.10;54.50;;;;;;5065342;28;46732;-63
2022/06/04 08:02:45;;;;;;;6.47;2.67;;;22.80;54.90;;;;;;5068913;28;46327;-64
2022/06/04 08:05:11;;;;;;;4.80;2.67;;;22.70;55.50;;;;;;5067623;28;45807;-63
2022/06/04 08:07:37;;;;;;;7.80;2.77;;;22.60;56.80;;;;;;5066295;28;46447;-63
2022/06/04 08:10:04;;;;;;;6.10;3.00;;;22.60;55.70;;;;;;5066659;28;46958;-62
2022/06/04 08:12:33;;;;;;;4.57;2.50;;;22.60;55.80;;;;;;5066172;28;46378;-62
2022/06/04 08:15:00;;;;;;;6.77;2.73;;;22.80;56.00;;;;;;5067771;28;46456;-62
2022/06/04 08:17:26;;;;;;;4.87;2.80;;;23.00;55.60;;;;;;5067297;28;46468;-62
2022/06/04 08:19:52;;;;;;;5.53;3.00;;;23.20;55.20;;;;;;5069793;28;46733;-63
2022/06/04 08:22:18;;;;;;;7.13;3.03;;;23.50;54.50;;;;;;5068357;28;46454;-62
2022/06/04 08:24:47;;;;;;;6.90;2.80;;;23.80;53.90;;;;;;5064028;28;46388;-62
2022/06/04 08:27:13;;;;;;;4.47;2.50;;;24.20;52.80;;;;;;5068093;28;46396;-62
2022/06/04 08:29:39;;;;;;;7.67;2.63;;;24.60;51.90;;;;;;5066922;28;46373;-62
2022/06/04 08:32:05;;;;;;;5.40;2.70;;;24.90;51.90;;;;;;5069192;27;46425;-62
2022/06/04 08:34:32;;;;;;;6.40;2.97;;;25.40;50.00;;;;;;5068307;27;46776;-62
2022/06/04 08:36:59;;;;;;;5.37;2.60;;;25.80;48.90;;;;;;5068428;28;46716;-63
2022/06/04 08:39:25;;;;;;;4.10;2.63;;;26.00;48.50;;;;;;5068901;28;46428;-62
2022/06/04 08:41:59;;;;;;;4.23;2.40;;;26.10;47.70;;;;;;5067782;28;46502;-61
2022/06/04 08:44:33;;;;;;;7.13;2.47;;;26.00;47.40;;;;;;5064973;28;46364;-63
2022/06/04 08:47:07;;;;;;;3.77;2.20;;;25.70;47.90;;;;;;5068406;28;46356;-63
2022/06/04 08:49:37;;;;;;;5.53;2.20;;;25.40;48.70;;;;;;5064640;28;46395;-62
2022/06/04 08:52:11;;;;;;;7.70;2.40;;;25.10;48.90;;;;;;5067000;28;47079;-63
2022/06/04 08:57:32;;;;;;;6.63;2.50;;;24.70;49.60;;;;;;5060084;27;46488;-63
2022/06/04 09:00:12;;;;;;;4.70;2.23;;;24.60;49.60;;;;;;5065015;28;46451;-63
2022/06/04 09:02:52;;;;;;;5.53;2.17;;;24.70;48.80;;;;;;5060782;28;47393;-62
2022/06/04 09:05:36;;;;;;;6.40;2.00;;;25.00;47.70;;;;;;5064847;28;46380;-62
2022/06/04 09:08:13;;;;;;;8.90;3.70;;;25.20;47.70;;;;;;5067785;28;46422;-63
2022/06/04 09:10:49;;;;;;;15.97;3.20;;;25.20;47.60;;;;;;5065531;28;46559;-62
2022/06/04 09:13:26;;;;;;;5.17;2.67;;;25.20;47.50;;;;;;5068459;28;46750;-63
2022/06/04 09:16:05;;;;;;;10.50;3.77;;;25.30;46.90;;;;;;5066008;27;46500;-62
2022/06/04 09:18:34;;;;;;;9.10;3.00;;;25.20;46.80;;;;;;5066070;28;46328;-63
2022/06/04 09:21:02;;;;;;;8.83;3.90;;;25.20;47.40;;;;;;5065924;28;46416;-63
2022/06/04 09:23:43;;;;;;;7.17;3.47;;;25.30;47.20;;;;;;5065396;28;47276;-62
2022/06/04 09:26:14;;;;;;;7.13;3.60;;;25.70;46.60;;;;;;5065227;28;46417;-61
2022/06/04 09:29:14;;;;;;;8.43;3.53;;;26.20;44.70;;;;;;5065041;28;46693;-62
2022/06/04 09:32:12;;;;;;;6.33;2.90;;;26.70;43.40;;;;;;5065648;28;46351;-62
2022/06/04 09:35:00;;;;;;;8.87;2.80;;;26.90;42.80;;;;;;5064707;28;47389;-63
2022/06/04 09:37:26;;;;;;;6.23;2.50;;;27.10;42.60;;;;;;5066352;28;46546;-63
2022/06/04 09:40:06;;;;;;;12.40;4.27;;;27.20;41.90;;;;;;5066422;27;46528;-63
2022/06/04 09:42:32;;;;;;;7.93;3.10;;;27.10;41.50;;;;;;5067386;28;46482;-62
2022/06/04 09:45:01;;;;;;;8.87;3.40;;;27.10;41.80;;;;;;5064821;28;46394;-62
2022/06/04 09:47:53;;;;;;;14.93;4.77;;;26.80;42.30;;;;;;5066281;28;46487;-62
2022/06/04 09:50:32;;;;;;;13.63;5.10;;;26.50;43.30;;;;;;5063393;28;45767;-62
2022/06/04 09:53:16;;;;;;;9.90;3.43;;;26.50;44.10;;;;;;5067908;28;46356;-61
2022/06/04 09:55:50;;;;;;;8.03;2.87;;;26.30;43.70;;;;;;5066973;28;46407;-61
2022/06/04 09:58:38;;;;;;;6.03;3.13;;;26.20;43.50;;;;;;5065896;28;46450;-63
2022/06/04 10:01:16;;;;;;;6.30;3.37;;;26.20;43.60;;;;;;5066554;28;46331;-64
2022/06/04 10:03:44;;;;;;;10.93;3.30;;;26.10;44.10;;;;;;5063803;27;46498;-63
2022/06/04 10:06:15;;;;;;;6.70;2.70;;;26.20;43.90;;;;;;5063918;28;47078;-63
2022/06/04 10:11:56;;;;;;;8.03;3.80;;;25.80;43.80;;;;;;5069359;28;46331;-63
2022/06/04 10:14:34;;;;;;;5.20;2.73;;;26.00;43.20;;;;;;5071589;27;46407;-63
2022/06/04 10:17:01;;;;;;;9.43;3.33;;;26.20;43.60;;;;;;5069108;27;47016;-64
2022/06/04 10:19:30;;;;;;;6.80;3.13;;;26.20;43.70;;;;;;5070033;28;46375;-64
2022/06/04 10:22:11;;;;;;;8.07;3.27;;;26.20;43.50;;;;;;5070346;28;46461;-63
2022/06/04 10:24:48;;;;;;;12.57;3.10;;;26.20;43.00;;;;;;5068311;28;46468;-63
2022/06/04 10:27:22;;;;;;;8.03;3.50;;;26.40;43.00;;;;;;5069232;28;47255;-64
2022/06/04 10:30:16;;;;;;;9.90;3.40;;;26.50;42.80;;;;;;5067881;28;46450;-64
2022/06/04 10:33:14;;;;;;;10.10;3.97;;;26.70;42.10;;;;;;5071699;28;46295;-63
2022/06/04 10:36:04;;;;;;;9.10;3.27;;;26.70;42.10;;;;;;5069807;28;46794;-64
2022/06/04 10:38:32;;;;;;;7.93;3.10;;;26.70;42.10;;;;;;5068070;28;46394;-63
2022/06/04 10:41:13;;;;;;;4.70;2.53;;;26.70;41.70;;;;;;5070631;28;46397;-64
2022/06/04 10:44:00;;;;;;;7.83;3.10;;;26.60;42.00;;;;;;5064642;28;46504;-64
2022/06/04 10:46:58;;;;;;;5.03;2.70;;;26.50;41.60;;;;;;5069391;28;46309;-63
2022/06/04 10:49:38;;;;;;;6.90;2.87;;;26.50;40.70;;;;;;5070148;28;46367;-62
2022/06/04 10:52:38;;;;;;;7.43;3.17;;;26.30;41.40;;;;;;5069518;27;46434;-62
2022/06/04 10:55:31;;;;;;;6.37;3.20;;;26.50;41.10;;;;;;5066228;28;46411;-63
2022/06/04 10:58:25;;;;;;;6.60;2.70;;;26.40;40.90;;;;;;5069668;28;46376;-62
2022/06/04 11:01:01;;;;;;;6.40;2.50;;;26.40;41.20;;;;;;5068527;28;47321;-62
2022/06/04 11:03:49;;;;;;;10.47;3.40;;;26.40;41.40;;;;;;5068829;28;46367;-62
2022/06/04 11:06:17;;;;;;;9.20;2.93;;;26.50;41.70;;;;;;5069118;28;46481;-63
2022/06/04 11:08:59;;;;;;;4.73;2.83;;;26.50;41.60;;;;;;5069564;27;46434;-63
2022/06/04 11:11:32;;;;;;;6.10;3.20;;;26.50;42.00;;;;;;5068615;28;47085;-63
2022/06/04 11:14:11;;;;;;;5.47;2.50;;;26.60;41.60;;;;;;5067684;28;46408;-64
2022/06/04 11:16:48;;;;;;;4.87;2.93;;;26.50;40.90;;;;;;5068546;28;46634;-64
2022/06/04 11:19:33;;;;;;;3.60;2.10;;;26.30;40.40;;;;;;5069009;28;46463;-66
2022/06/04 11:22:15;;;;;;;7.23;2.73;;;26.20;40.30;;;;;;5066766;28;47681;-66
2022/06/04 11:24:47;;;;;;;8.37;3.20;;;26.10;40.20;;;;;;5069042;28;46424;-63
2022/06/04 11:27:45;;;;;;;4.00;2.73;;;26.20;41.00;;;;;;5070580;28;46461;-65
2022/06/04 11:30:19;;;;;;;9.23;3.07;;;26.40;41.80;;;;;;5067186;28;46546;-64
2022/06/04 11:33:05;;;;;;;6.57;3.53;;;26.60;41.40;;;;;;5069664;27;47204;-65
2022/06/04 11:35:40;;;;;;;5.63;3.23;;;26.50;39.80;;;;;;5068952;28;46411;-62
2022/06/04 11:38:27;;;;;;;8.10;3.10;;;26.40;39.60;;;;;;5067673;27;46310;-64
2022/06/04 11:41:30;;;;;;;7.47;2.90;;;26.70;39.80;;;;;;5069792;28;46396;-63
2022/06/04 11:44:26;;;;;;;5.93;2.90;;;26.60;39.70;;;;;;5067780;28;46402;-63
2022/06/04 11:47:16;;;;;;;11.43;2.93;;;26.70;39.80;;;;;;5067327;28;46566;-63
2022/06/04 11:50:12;;;;;;;5.13;3.00;;;26.80;39.90;;;;;;5068063;28;46398;-63
2022/06/04 11:53:08;;;;;;;7.33;3.00;;;26.50;39.30;;;;;;5067370;28;46375;-63
2022/06/04 11:55:46;;;;;;;5.63;3.33;;;26.50;39.70;;;;;;5067640;28;45967;-63
2022/06/04 11:58:30;;;;;;;5.90;3.13;;;26.70;39.80;;;;;;5068861;28;46425;-63
2022/06/04 12:01:00;;;;;;;7.33;3.10;;;26.90;38.90;;;;;;5067478;28;46463;-64
2022/06/04 12:03:48;;;;;;;5.07;2.67;;;26.60;39.30;;;;;;5067373;28;46445;-64
2022/06/04 12:06:28;;;;;;;7.43;2.70;;;26.80;39.60;;;;;;5070004;28;47220;-64
2022/06/04 12:09:19;;;;;;;5.47;3.07;;;26.70;39.10;;;;;;5069759;28;46449;-63
2022/06/04 12:12:02;;;;;;;6.43;3.50;;;26.40;39.10;;;;;;5067634;28;46617;-64
2022/06/04 12:14:40;;;;;;;6.73;3.30;;;26.20;39.40;;;;;;5067795;28;46751;-63
2022/06/04 12:17:22;;;;;;;6.63;3.20;;;25.90;39.50;;;;;;5068703;28;46471;-63
2022/06/04 12:26:28;;;;;;;5.90;2.77;;;26.10;39.80;;;;;;5069151;28;46724;-66
2022/06/04 12:28:55;;;;;;;10.70;3.03;;;26.20;39.70;;;;;;5068357;27;46393;-64
2022/06/04 12:31:36;;;;;;;5.27;3.00;;;26.20;39.40;;;;;;5068417;27;46460;-62
2022/06/04 12:34:21;;;;;;;5.60;3.27;;;26.10;38.80;;;;;;5068759;28;46283;-64
2022/06/04 12:36:52;;;;;;;7.03;2.87;;;26.20;39.40;;;;;;5068002;28;46318;-65
2022/06/04 12:39:25;;;;;;;7.47;2.60;;;26.40;39.70;;;;;;5067341;28;46508;-65
2022/06/04 12:41:54;;;;;;;6.50;2.53;;;26.50;39.70;;;;;;5061303;28;46004;-63
2022/06/04 12:44:27;;;;;;;5.47;3.30;;;26.50;39.10;;;;;;5066340;28;46472;-64
2022/06/04 12:46:54;;;;;;;7.30;3.27;;;26.60;39.70;;;;;;5069464;27;46372;-69
2022/06/04 12:49:46;;;;;;;5.60;3.43;;;26.60;39.70;;;;;;5066654;28;47291;-64
2022/06/04 12:52:39;;;;;;;5.70;3.03;;;26.60;39.20;;;;;;5070076;28;46538;-62
2022/06/04 12:55:14;;;;;;;6.77;3.60;;;26.60;39.00;;;;;;5066499;28;46478;-64
2022/06/04 12:58:01;;;;;;;8.53;3.63;;;26.70;39.80;;;;;;5066910;28;46366;-64
2022/06/04 13:00:39;;;;;;;7.00;3.33;;;26.90;39.20;;;;;;5067432;28;47105;-63
2022/06/04 13:03:07;;;;;;;7.50;3.53;;;26.60;38.60;;;;;;5066835;28;46384;-63
2022/06/04 13:05:54;;;;;;;6.30;3.50;;;26.70;38.80;;;;;;5066930;28;46625;-64
2022/06/04 13:08:20;;;;;;;6.93;4.03;;;26.90;38.50;;;;;;5065902;27;46372;-65
2022/06/04 13:10:52;;;;;;;5.93;3.47;;;26.90;36.40;;;;;;5067114;28;47017;-63
2022/06/04 13:13:41;;;;;;;5.67;3.47;;;27.10;36.40;;;;;;5066098;28;46385;-66
2022/06/04 13:16:30;;;;;;;8.47;4.03;;;27.40;36.40;;;;;;5066724;28;46530;-63
2022/06/04 13:19:01;;;;;;;13.20;3.83;;;27.30;36.30;;;;;;5065594;28;46404;-63
2022/06/04 13:21:28;;;;;;;8.23;3.40;;;27.10;36.80;;;;;;5066335;28;46449;-65
2022/06/04 13:24:01;;;;;;;8.07;4.03;;;27.10;37.20;;;;;;5066457;28;46463;-63
2022/06/04 13:26:36;;;;;;;7.47;3.77;;;27.10;37.30;;;;;;5065181;28;46424;-63
2022/06/04 13:29:19;;;;;;;7.60;3.63;;;27.30;36.80;;;;;;5065681;27;46646;-63
2022/06/04 13:31:51;;;;;;;6.40;3.90;;;27.60;36.40;;;;;;5065836;28;46173;-62
2022/06/04 13:34:20;;;;;;;6.90;3.90;;;27.50;35.70;;;;;;5062597;28;45887;-63
2022/06/04 13:36:48;;;;;;;6.47;4.10;;;27.40;35.90;;;;;;5066680;28;46436;-63